createdAt,value
2019-02-27T00:01:06.173Z,10.20
2019-02-27T00:03:33.683Z,10.83
2019-02-27T00:06:01.243Z,13.20
2019-02-27T00:08:28.803Z,8.07
2019-02-27T00:10:56.049Z,8.07
2019-02-27T00:13:24.882Z,6.40
2019-02-27T00:15:52.714Z,6.37
2019-02-27T00:18:23.765Z,4.47
2019-02-27T00:20:49.807Z,5.27
2019-02-27T00:23:17.332Z,5.77
2019-02-27T00:25:44.576Z,6.13
2019-02-27T00:28:11.795Z,5.30
2019-02-27T00:30:39.395Z,3.97
2019-02-27T00:33:06.715Z,4.50
2019-02-27T00:35:33.930Z,8.80
2019-02-27T00:38:01.141Z,4.47
2019-02-27T00:40:28.362Z,5.33
2019-02-27T00:42:55.884Z,4.90
2019-02-27T00:45:23.123Z,4.40
2019-02-27T00:47:52.813Z,7.20
2019-02-27T00:50:20.181Z,6.00
2019-02-27T00:52:50.869Z,5.77
2019-02-27T00:55:16.563Z,4.10
2019-02-27T00:57:43.804Z,6.80
2019-02-27T01:00:13.568Z,7.10
2019-02-27T01:02:40.924Z,7.70
2019-02-27T01:05:09.123Z,6.33
2019-02-27T01:07:36.697Z,5.60
2019-02-27T01:10:04.800Z,4.73
2019-02-27T01:12:32.074Z,5.10
2019-02-27T01:14:59.288Z,6.90
2019-02-27T01:17:26.804Z,5.27
2019-02-27T01:19:54.015Z,3.43
2019-02-27T01:22:21.621Z,3.63
2019-02-27T01:24:50.202Z,4.80
2019-02-27T01:27:18.283Z,4.33
2019-02-27T01:29:45.832Z,4.00
2019-02-27T01:32:13.068Z,3.33
2019-02-27T01:34:44.291Z,3.93
2019-02-27T01:37:09.736Z,4.57
2019-02-27T01:39:37.296Z,3.20
2019-02-27T01:42:04.855Z,4.33
2019-02-27T01:44:32.080Z,5.87
2019-02-27T01:47:02.129Z,4.00
2019-02-27T01:49:28.445Z,5.33
2019-02-27T01:51:56.007Z,5.53
2019-02-27T01:54:23.223Z,7.10
2019-02-27T01:56:50.493Z,4.53
2019-02-27T01:59:17.976Z,3.40
2019-02-27T02:01:45.089Z,4.23
2019-02-27T02:04:12.676Z,5.53
2019-02-27T02:06:39.895Z,5.47
2019-02-27T02:09:11.391Z,5.10
2019-02-27T02:11:38.616Z,6.57
2019-02-27T02:14:38.036Z,6.33
2019-02-27T02:17:23.200Z,4.50
2019-02-27T02:20:16.525Z,7.33
2019-02-27T02:23:24.002Z,5.70
2019-02-27T02:26:35.804Z,6.23
2019-02-27T02:29:23.909Z,5.27
2019-02-27T02:32:18.156Z,6.07
2019-02-27T02:35:41.822Z,5.43
2019-02-27T02:38:16.210Z,5.73
2019-02-27T02:41:17.676Z,8.63
2019-02-27T02:44:25.344Z,6.97
2019-02-27T02:47:35.824Z,5.90
2019-02-27T02:50:27.677Z,5.67
2019-02-27T02:53:35.712Z,5.60
2019-02-27T02:56:37.562Z,5.53
2019-02-27T03:00:02.400Z,5.37
2019-02-27T03:03:16.693Z,6.30
2019-02-27T03:06:34.727Z,7.67
2019-02-27T03:09:15.985Z,7.30
2019-02-27T03:12:10.938Z,6.07
2019-02-27T03:14:54.208Z,7.57
2019-02-27T03:17:43.726Z,5.90
2019-02-27T03:20:57.317Z,6.57
2019-02-27T03:24:10.465Z,6.67
2019-02-27T03:27:29.609Z,5.43
2019-02-27T03:30:13.973Z,5.43
2019-02-27T03:32:52.142Z,7.50
2019-02-27T03:35:59.909Z,5.30
2019-02-27T03:39:00.317Z,6.77
2019-02-27T03:42:12.002Z,6.80
2019-02-27T03:44:57.162Z,6.87
2019-02-27T03:47:53.050Z,5.83
2019-02-27T03:50:40.471Z,6.10
2019-02-27T03:53:57.652Z,7.27
2019-02-27T03:56:51.000Z,6.10
2019-02-27T03:59:59.640Z,7.00
2019-02-27T04:03:07.722Z,8.50
2019-02-27T04:06:22.079Z,8.50
2019-02-27T04:08:56.868Z,6.53
2019-02-27T04:11:24.205Z,6.60
2019-02-27T04:13:51.464Z,7.90
2019-02-27T04:16:18.731Z,6.63
2019-02-27T04:18:45.947Z,7.93
2019-02-27T04:21:13.800Z,7.27
2019-02-27T04:23:41.023Z,7.10
2019-02-27T04:26:08.279Z,8.30
2019-02-27T04:28:35.518Z,5.90
2019-02-27T04:31:02.827Z,8.50
2019-02-27T04:33:30.046Z,8.00
2019-02-27T04:35:57.609Z,10.73
2019-02-27T04:38:25.057Z,7.63
2019-02-27T04:40:53.957Z,8.43
2019-02-27T04:43:21.175Z,9.87
2019-02-27T04:45:48.625Z,8.27
2019-02-27T04:48:15.955Z,8.07
2019-02-27T04:50:44.166Z,7.57
2019-02-27T04:53:12.104Z,11.00
2019-02-27T04:55:39.402Z,7.13
2019-02-27T04:58:08.896Z,6.77
2019-02-27T05:00:35.881Z,8.70
2019-02-27T05:03:03.111Z,7.50
2019-02-27T05:05:30.332Z,9.67
2019-02-27T05:07:57.552Z,9.73
2019-02-27T05:10:24.788Z,10.50
2019-02-27T05:12:52.012Z,8.83
2019-02-27T05:15:19.237Z,8.57
2019-02-27T05:17:46.461Z,9.07
2019-02-27T05:20:13.786Z,9.37
2019-02-27T05:22:41.263Z,9.67
2019-02-27T05:25:08.552Z,9.37
2019-02-27T05:27:36.048Z,10.80
2019-02-27T05:30:03.954Z,15.60
2019-02-27T05:32:31.271Z,9.83
2019-02-27T05:34:58.575Z,8.57
2019-02-27T05:37:25.813Z,12.00
2019-02-27T05:39:53.330Z,9.27
2019-02-27T05:42:20.600Z,11.10
2019-02-27T05:44:47.862Z,11.73
2019-02-27T05:47:15.087Z,11.17
2019-02-27T05:49:42.659Z,8.73
2019-02-27T05:52:11.805Z,10.87
2019-02-27T05:54:39.263Z,10.10
2019-02-27T05:57:06.573Z,11.27
2019-02-27T05:59:33.797Z,11.47
2019-02-27T06:02:01.047Z,11.33
2019-02-27T06:04:28.604Z,9.37
2019-02-27T06:06:55.747Z,8.87
2019-02-27T06:09:23.365Z,9.37
2019-02-27T06:11:50.877Z,10.83
2019-02-27T06:14:21.161Z,11.37
2019-02-27T06:16:47.281Z,11.90
2019-02-27T06:19:14.548Z,10.40
2019-02-27T06:21:42.137Z,14.40
2019-02-27T06:24:12.596Z,11.50
2019-02-27T06:26:58.183Z,10.80
2019-02-27T06:29:25.318Z,11.77
2019-02-27T06:31:52.532Z,11.70
2019-02-27T06:34:22.331Z,11.27
2019-02-27T06:36:49.814Z,10.60
2019-02-27T06:39:17.372Z,12.63
2019-02-27T06:41:44.593Z,10.40
2019-02-27T06:44:11.816Z,10.43
2019-02-27T06:46:39.046Z,11.60
2019-02-27T06:49:06.996Z,10.90
2019-02-27T06:51:35.758Z,11.87
2019-02-27T06:54:03.851Z,10.80
2019-02-27T06:56:31.408Z,11.30
2019-02-27T06:58:58.628Z,13.23
2019-02-27T07:01:26.226Z,11.90
2019-02-27T07:03:53.459Z,12.37
2019-02-27T07:06:21.530Z,11.23
2019-02-27T07:08:49.512Z,12.13
2019-02-27T07:11:17.069Z,11.57
2019-02-27T07:13:44.729Z,20.63
2019-02-27T07:16:11.948Z,13.90
2019-02-27T07:18:41.871Z,12.93
2019-02-27T07:21:08.669Z,13.53
2019-02-27T07:23:35.920Z,14.80
2019-02-27T07:26:04.503Z,16.13
2019-02-27T07:28:32.040Z,9.40
2019-02-27T07:30:59.613Z,9.33
2019-02-27T07:33:27.148Z,9.27
2019-02-27T07:35:54.374Z,9.77
2019-02-27T07:38:22.280Z,10.47
2019-02-27T07:40:49.628Z,7.50
2019-02-27T07:43:17.261Z,10.80
2019-02-27T07:45:45.466Z,8.60
2019-02-27T07:48:13.529Z,8.00
2019-02-27T07:50:41.108Z,8.70
2019-02-27T07:53:08.327Z,8.07
2019-02-27T07:55:35.575Z,8.73
2019-02-27T07:58:02.799Z,11.50
2019-02-27T08:00:30.401Z,10.50
2019-02-27T08:02:57.612Z,18.30
2019-02-27T08:05:27.978Z,17.17
2019-02-27T08:07:54.616Z,20.00
2019-02-27T08:10:21.979Z,21.67
2019-02-27T08:12:49.227Z,22.03
2019-02-27T08:15:17.016Z,21.13
2019-02-27T08:17:44.264Z,17.80
2019-02-27T08:20:11.645Z,18.10
2019-02-27T08:22:38.865Z,18.67
2019-02-27T08:25:06.689Z,18.43
2019-02-27T08:27:33.908Z,17.80
2019-02-27T08:30:01.148Z,17.47
2019-02-27T08:32:28.399Z,16.30
2019-02-27T08:34:55.649Z,19.00
2019-02-27T08:37:22.885Z,17.03
2019-02-27T08:39:50.420Z,17.20
2019-02-27T08:42:17.640Z,16.00
2019-02-27T08:44:45.802Z,15.10
2019-02-27T08:47:13.977Z,14.07
2019-02-27T08:49:41.228Z,13.57
2019-02-27T08:52:08.728Z,11.80
2019-02-27T08:54:36.285Z,10.10
2019-02-27T08:57:03.512Z,9.57
2019-02-27T08:59:30.767Z,11.60
2019-02-27T09:01:57.981Z,10.33
2019-02-27T09:04:25.208Z,10.30
2019-02-27T09:06:52.848Z,9.63
2019-02-27T09:09:20.074Z,9.03
2019-02-27T09:11:47.659Z,11.17
2019-02-27T09:14:14.889Z,12.20
2019-02-27T09:16:42.109Z,10.90
2019-02-27T09:19:10.157Z,10.17
2019-02-27T09:21:37.903Z,12.83
2019-02-27T09:24:05.128Z,13.57
2019-02-27T09:26:35.827Z,14.60
2019-02-27T09:29:01.808Z,12.03
2019-02-27T09:31:29.468Z,11.17
2019-02-27T09:33:56.703Z,12.33
2019-02-27T09:36:23.960Z,11.80
2019-02-27T09:38:51.198Z,11.30
2019-02-27T09:41:18.824Z,9.77
2019-02-27T09:43:46.464Z,11.30
2019-02-27T09:46:13.793Z,11.13
2019-02-27T09:48:41.355Z,14.50
2019-02-27T09:51:08.628Z,12.40
2019-02-27T09:53:36.859Z,10.93
2019-02-27T09:56:04.868Z,14.70
2019-02-27T09:58:32.417Z,6.47
2019-02-27T10:01:09.681Z,12.17
2019-02-27T10:03:37.256Z,6.67
2019-02-27T10:06:04.523Z,10.63
2019-02-27T10:08:32.062Z,11.30
2019-02-27T10:10:59.366Z,13.93
2019-02-27T10:13:26.636Z,11.93
2019-02-27T10:15:53.899Z,13.47
2019-02-27T10:18:22.060Z,13.40
2019-02-27T10:20:49.587Z,15.57
2019-02-27T10:23:16.808Z,10.30
2019-02-27T10:25:44.202Z,11.27
2019-02-27T10:28:11.496Z,9.97
2019-02-27T10:30:38.784Z,10.70
2019-02-27T10:33:06.327Z,10.27
2019-02-27T10:35:34.827Z,12.23
2019-02-27T10:38:02.400Z,11.40
2019-02-27T10:40:29.657Z,12.73
2019-02-27T10:42:57.284Z,10.20
2019-02-27T10:45:24.835Z,11.73
2019-02-27T10:47:52.068Z,10.93
2019-02-27T10:50:19.340Z,11.77
2019-02-27T10:52:46.578Z,10.10
2019-02-27T10:55:14.910Z,12.43
2019-02-27T10:57:42.184Z,12.03
2019-02-27T11:00:18.167Z,12.50
2019-02-27T11:02:47.917Z,11.03
2019-02-27T11:05:17.795Z,12.70
2019-02-27T11:07:46.520Z,12.10
2019-02-27T11:10:14.197Z,12.90
2019-02-27T11:12:41.420Z,12.00
2019-02-27T11:15:11.474Z,12.27
2019-02-27T11:17:38.701Z,10.07
2019-02-27T11:20:06.847Z,9.43
2019-02-27T11:22:34.096Z,11.27
2019-02-27T11:25:01.655Z,10.20
2019-02-27T11:27:28.913Z,8.97
2019-02-27T11:29:59.628Z,12.73
2019-02-27T11:32:25.331Z,8.57
2019-02-27T11:34:52.549Z,8.43
2019-02-27T11:37:20.065Z,7.50
2019-02-27T11:39:47.630Z,8.07
2019-02-27T11:42:15.182Z,3.83
2019-02-27T11:44:42.833Z,4.93
2019-02-27T11:47:11.365Z,4.67
2019-02-27T11:49:39.400Z,7.07
2019-02-27T11:52:07.161Z,4.97
2019-02-27T11:54:34.389Z,4.13
2019-02-27T11:57:02.075Z,4.53
2019-02-27T11:59:29.552Z,4.83
2019-02-27T12:01:57.094Z,5.70
2019-02-27T12:04:24.751Z,4.00
2019-02-27T12:06:52.311Z,4.53
2019-02-27T12:09:19.664Z,3.67
2019-02-27T12:11:48.819Z,3.20
2019-02-27T12:14:16.071Z,3.70
2019-02-27T12:16:43.773Z,4.40
2019-02-27T12:19:11.434Z,4.23
2019-02-27T12:21:39.148Z,3.83
2019-02-27T12:24:06.384Z,5.73
2019-02-27T12:26:34.428Z,3.37
2019-02-27T12:29:02.898Z,3.03
2019-02-27T12:31:30.225Z,3.67
2019-02-27T12:33:57.457Z,3.67
2019-02-27T12:36:24.989Z,2.57
2019-02-27T12:38:52.215Z,3.87
2019-02-27T12:41:19.772Z,2.77
2019-02-27T12:43:52.317Z,3.13
2019-02-27T12:46:16.505Z,3.77
2019-02-27T12:48:46.356Z,2.87
2019-02-27T12:51:13.203Z,3.13
2019-02-27T12:53:42.324Z,5.20
2019-02-27T12:56:10.249Z,5.17
2019-02-27T12:58:37.478Z,4.90
2019-02-27T13:01:05.611Z,2.80
2019-02-27T13:03:32.835Z,1.90
2019-02-27T13:06:00.898Z,4.73
2019-02-27T13:08:28.995Z,3.40
2019-02-27T13:10:56.211Z,3.00
2019-02-27T13:13:25.944Z,2.40
2019-02-27T13:15:52.865Z,2.03
2019-02-27T13:18:20.098Z,2.20
2019-02-27T13:20:47.319Z,4.10
2019-02-27T13:23:14.851Z,2.53
2019-02-27T13:25:42.120Z,2.17
2019-02-27T13:28:09.635Z,3.47
2019-02-27T13:30:41.301Z,2.93
2019-02-27T13:33:06.300Z,2.90
2019-02-27T13:35:33.559Z,2.43
2019-02-27T13:38:01.104Z,2.53
2019-02-27T13:40:28.370Z,2.80
2019-02-27T13:42:55.912Z,2.50
2019-02-27T13:45:23.882Z,2.73
2019-02-27T13:47:51.450Z,3.87
2019-02-27T13:50:22.312Z,4.90
2019-02-27T13:52:51.662Z,4.70
2019-02-27T13:55:19.018Z,6.50
2019-02-27T13:57:46.598Z,4.73
2019-02-27T14:00:32.228Z,5.83
2019-02-27T14:03:00.837Z,4.27
2019-02-27T14:05:29.513Z,3.20
2019-02-27T14:07:58.466Z,3.57
2019-02-27T14:10:26.786Z,3.60
2019-02-27T14:12:54.383Z,5.00
2019-02-27T14:15:26.779Z,3.07
2019-02-27T14:17:51.047Z,3.47
2019-02-27T14:20:19.201Z,2.83
2019-02-27T14:22:46.496Z,5.73
2019-02-27T14:25:15.919Z,3.87
2019-02-27T14:27:47.243Z,2.20
2019-02-27T14:30:15.679Z,3.40
2019-02-27T14:32:44.979Z,2.20
2019-02-27T14:35:12.359Z,4.53
2019-02-27T14:37:39.496Z,2.23
2019-02-27T14:40:08.840Z,2.23
2019-02-27T14:42:36.067Z,2.33
2019-02-27T14:45:05.914Z,4.07
2019-02-27T14:47:34.332Z,2.33
2019-02-27T14:50:01.891Z,5.87
2019-02-27T14:52:29.443Z,2.20
2019-02-27T14:54:57.103Z,3.97
2019-02-27T14:57:24.325Z,3.63
2019-02-27T14:59:51.655Z,3.63
2019-02-27T15:02:22.010Z,3.53
2019-02-27T15:04:48.052Z,5.87
2019-02-27T15:07:15.620Z,8.07
2019-02-27T15:09:47.724Z,6.17
2019-02-27T15:12:12.376Z,8.00
2019-02-27T15:14:39.597Z,7.17
2019-02-27T15:17:07.190Z,10.17
2019-02-27T15:19:35.477Z,8.90
2019-02-27T15:22:03.224Z,10.67
2019-02-27T15:24:31.946Z,9.53
2019-02-27T15:26:59.979Z,9.63
2019-02-27T15:29:27.208Z,9.27
2019-02-27T15:31:54.803Z,7.57
2019-02-27T15:34:22.668Z,8.13
2019-02-27T15:36:50.219Z,5.67
2019-02-27T15:39:21.108Z,8.17
2019-02-27T15:41:46.995Z,10.43
2019-02-27T15:44:14.219Z,8.63
2019-02-27T15:46:41.441Z,10.57
2019-02-27T15:49:08.659Z,12.73
2019-02-27T15:51:36.492Z,11.30
2019-02-27T15:54:04.057Z,11.67
2019-02-27T15:56:31.611Z,10.87
2019-02-27T15:58:59.379Z,8.87
2019-02-27T16:01:28.930Z,8.93
2019-02-27T16:03:56.249Z,8.30
2019-02-27T16:06:25.554Z,10.40
2019-02-27T16:08:57.074Z,9.57
2019-02-27T16:11:22.808Z,9.40
2019-02-27T16:13:50.374Z,8.33
2019-02-27T16:16:22.424Z,7.60
2019-02-27T16:18:47.125Z,10.47
2019-02-27T16:21:14.372Z,9.33
2019-02-27T16:23:41.930Z,14.03
2019-02-27T16:26:09.251Z,8.00
2019-02-27T16:28:37.092Z,9.00
2019-02-27T16:31:06.206Z,8.80
2019-02-27T16:33:33.511Z,11.37
2019-02-27T16:36:00.759Z,11.33
2019-02-27T16:38:28.333Z,7.83
2019-02-27T16:40:57.399Z,10.60
2019-02-27T16:43:24.620Z,8.50
2019-02-27T16:45:51.836Z,5.53
2019-02-27T16:48:19.067Z,9.47
2019-02-27T16:50:48.163Z,9.03
2019-02-27T16:53:18.644Z,8.20
2019-02-27T16:55:44.623Z,8.67
2019-02-27T16:58:11.844Z,7.13
2019-02-27T17:00:39.464Z,6.87
2019-02-27T17:03:06.994Z,9.87
2019-02-27T17:05:34.304Z,9.33
2019-02-27T17:08:02.754Z,6.37
2019-02-27T17:10:30.570Z,6.10
2019-02-27T17:12:58.129Z,8.73
2019-02-27T17:15:25.500Z,24.43
2019-02-27T17:17:53.385Z,20.70
2019-02-27T17:20:23.981Z,13.33
2019-02-27T17:22:51.168Z,11.50
2019-02-27T17:25:18.387Z,8.73
2019-02-27T17:27:49.925Z,7.67
2019-02-27T17:30:25.549Z,9.03
2019-02-27T17:32:52.862Z,9.97
2019-02-27T17:35:20.591Z,7.97
2019-02-27T17:37:49.324Z,9.37
2019-02-27T17:40:16.943Z,13.20
2019-02-27T17:42:44.518Z,8.23
2019-02-27T17:45:13.865Z,10.23
2019-02-27T17:47:41.463Z,8.67
2019-02-27T17:50:09.432Z,11.67
2019-02-27T17:52:36.805Z,8.13
2019-02-27T17:55:06.683Z,12.37
2019-02-27T17:57:33.631Z,9.03
2019-02-27T18:00:01.207Z,7.70
2019-02-27T18:02:30.193Z,10.20
2019-02-27T18:04:58.469Z,12.27
2019-02-27T18:07:34.099Z,13.37
2019-02-27T18:09:55.123Z,9.17
2019-02-27T18:12:26.750Z,10.10
2019-02-27T18:14:52.502Z,8.83
2019-02-27T18:17:20.059Z,11.20
2019-02-27T18:19:50.037Z,10.03
2019-02-27T18:22:16.466Z,8.90
2019-02-27T18:24:45.930Z,9.47
2019-02-27T18:27:13.200Z,10.37
2019-02-27T18:29:41.183Z,8.83
2019-02-27T18:32:09.565Z,11.40
2019-02-27T18:34:37.063Z,8.67
2019-02-27T18:37:04.627Z,9.73
2019-02-27T18:39:36.276Z,9.33
2019-02-27T18:42:00.964Z,11.83
2019-02-27T18:44:28.190Z,13.77
2019-02-27T18:46:56.227Z,11.77
2019-02-27T18:49:24.971Z,11.57
2019-02-27T18:51:52.196Z,9.07
2019-02-27T18:54:22.838Z,11.27
2019-02-27T18:56:49.625Z,8.63
2019-02-27T18:59:17.168Z,9.57
2019-02-27T19:01:45.247Z,8.13
2019-02-27T19:04:13.746Z,7.97
2019-02-27T19:06:43.118Z,8.90
2019-02-27T19:09:10.588Z,8.27
2019-02-27T19:11:38.128Z,12.37
2019-02-27T19:14:06.416Z,8.17
2019-02-27T19:16:34.199Z,13.53
2019-02-27T19:19:01.420Z,14.87
2019-02-27T19:21:32.781Z,12.80
2019-02-27T19:23:57.791Z,15.53
2019-02-27T19:26:25.327Z,18.07
2019-02-27T19:28:52.688Z,21.97
2019-02-27T19:31:19.977Z,16.80
2019-02-27T19:33:47.704Z,15.27
2019-02-27T19:36:19.220Z,13.37
2019-02-27T19:38:47.347Z,16.90
2019-02-27T19:41:13.338Z,18.63
2019-02-27T19:43:40.564Z,14.70
2019-02-27T19:46:09.896Z,12.30
2019-02-27T19:48:39.728Z,10.00
2019-02-27T19:51:06.953Z,10.67
2019-02-27T19:53:34.173Z,10.13
2019-02-27T19:56:01.764Z,8.40
2019-02-27T19:58:29.096Z,8.50
2019-02-27T20:00:56.994Z,9.10
2019-02-27T20:03:24.217Z,11.27
2019-02-27T20:05:53.230Z,12.40
2019-02-27T20:08:21.008Z,9.53
2019-02-27T20:10:48.740Z,11.67
2019-02-27T20:13:16.061Z,9.63
2019-02-27T20:15:45.642Z,8.37
2019-02-27T20:18:12.981Z,7.87
2019-02-27T20:20:41.219Z,6.80
2019-02-27T20:23:08.911Z,5.60
2019-02-27T20:25:36.468Z,5.60
2019-02-27T20:28:04.037Z,6.70
2019-02-27T20:30:31.272Z,8.63
2019-02-27T20:32:59.882Z,7.47
2019-02-27T20:35:27.615Z,8.00
2019-02-27T20:37:55.495Z,13.30
2019-02-27T20:40:22.711Z,9.07
2019-02-27T20:42:52.070Z,10.83
2019-02-27T20:45:19.403Z,9.63
2019-02-27T20:47:46.624Z,10.77
2019-02-27T20:50:20.888Z,10.33
2019-02-27T20:52:46.558Z,10.70
2019-02-27T20:55:15.988Z,9.93
2019-02-27T20:57:43.289Z,8.60
2019-02-27T21:00:12.388Z,9.03
2019-02-27T21:02:39.644Z,10.73
2019-02-27T21:05:09.565Z,7.50
2019-02-27T21:07:37.879Z,7.00
2019-02-27T21:10:08.265Z,11.17
2019-02-27T21:12:37.340Z,9.77
2019-02-27T21:15:05.053Z,9.87
2019-02-27T21:17:32.620Z,10.17
2019-02-27T21:19:59.848Z,7.60
2019-02-27T21:22:27.766Z,8.17
2019-02-27T21:24:55.731Z,9.03
2019-02-27T21:27:23.365Z,6.90
2019-02-27T21:29:50.754Z,8.60
2019-02-27T21:32:18.619Z,4.83
2019-02-27T21:34:45.938Z,6.17
2019-02-27T21:37:13.500Z,6.23
2019-02-27T21:39:40.728Z,7.27
2019-02-27T21:42:07.952Z,6.53
2019-02-27T21:44:35.173Z,6.87
2019-02-27T21:47:02.387Z,6.93
2019-02-27T21:49:32.284Z,7.27
2019-02-27T21:51:59.171Z,7.23
2019-02-27T21:54:27.023Z,5.60
2019-02-27T21:56:55.180Z,7.17
2019-02-27T21:59:22.620Z,8.13
2019-02-27T22:01:50.118Z,7.93
2019-02-27T22:04:17.673Z,6.43
2019-02-27T22:06:44.897Z,8.70
2019-02-27T22:09:13.659Z,6.57
2019-02-27T22:11:41.249Z,6.30
2019-02-27T22:14:08.466Z,7.60
2019-02-27T22:16:36.088Z,6.40
2019-02-27T22:19:03.316Z,5.80
2019-02-27T22:21:31.340Z,6.17
2019-02-27T22:23:59.785Z,6.53
2019-02-27T22:26:27.095Z,5.50
2019-02-27T22:28:55.160Z,6.47
2019-02-27T22:31:22.600Z,7.73
2019-02-27T22:33:50.123Z,8.27
2019-02-27T22:36:17.685Z,8.43
2019-02-27T22:38:44.988Z,5.97
2019-02-27T22:41:12.217Z,6.23
2019-02-27T22:43:39.739Z,5.63
2019-02-27T22:46:07.030Z,4.97
2019-02-27T22:48:34.305Z,4.00
2019-02-27T22:51:01.636Z,7.20
2019-02-27T22:53:29.383Z,4.30
2019-02-27T22:55:56.703Z,4.30
2019-02-27T22:58:27.444Z,6.93
2019-02-27T23:01:09.758Z,5.77
2019-02-27T23:03:58.601Z,9.17
2019-02-27T23:06:26.384Z,8.60
2019-02-27T23:08:54.431Z,7.77
2019-02-27T23:11:22.719Z,9.97
2019-02-27T23:13:49.960Z,7.53
2019-02-27T23:16:18.559Z,8.57
2019-02-27T23:18:46.121Z,9.67
2019-02-27T23:21:13.786Z,6.37
2019-02-27T23:23:41.003Z,8.47
2019-02-27T23:26:08.613Z,7.33
2019-02-27T23:28:36.149Z,8.40
2019-02-27T23:31:03.709Z,6.87
2019-02-27T23:33:35.882Z,5.97
2019-02-27T23:36:00.065Z,7.17
2019-02-27T23:38:27.307Z,7.87
2019-02-27T23:40:54.527Z,7.60
2019-02-27T23:43:21.800Z,5.87
2019-02-27T23:45:49.378Z,6.43
2019-02-27T23:48:16.699Z,7.73
2019-02-27T23:50:44.181Z,6.27
2019-02-27T23:53:11.740Z,8.50
2019-02-27T23:55:44.206Z,6.47
2019-02-27T23:58:08.202Z,4.57
